This is the latest recevied weather packets stored in our database for station/object S54A-11. If no packets are shown the sender has not sent any weather packets the latest 10 day(s).
| Time | Temp. | Humidity | Pressure | Rain* | Wind** | Luminosity | Snow |
|---|---|---|---|---|---|---|---|
| 1788013816 | 25° C | 46% | 1016.9 hPa | - | - | - | - |
| 1788010216 | 27.78° C | 43% | 1017.1 hPa | - | - | - | - |
| 1788009316 | 26.67° C | 43% | 1017.3 hPa | - | - | - | - |
| 1788008415 | 27.22° C | 44% | 1017 hPa | - | - | - | - |
| 1788006615 | 25.56° C | 47% | 1017.4 hPa | - | - | - | - |
| 1788005715 | 25° C | 47% | 1017.4 hPa | - | - | - | - |
| 1788003015 | 26.67° C | 49% | 1016.9 hPa | - | - | - | - |
| 1788002115 | 28.33° C | 47% | 1016.9 hPa | - | - | - | - |
| 1788001215 | 28.89° C | 49% | 1017.1 hPa | - | - | - | - |
| 1788000315 | 28.89° C | 47% | 1017 hPa | - | - | - | - |
| 1787999414 | 27.78° C | 50% | 1017 hPa | - | - | - | - |
| 1787998514 | 28.33° C | 49% | 1016.9 hPa | - | - | - | - |
| 1787997614 | 27.22° C | 50% | 1016.7 hPa | - | - | - | - |
| 1787996714 | 31.67° C | 45% | 1016.7 hPa | - | - | - | - |
| 1787995813 | 32.78° C | 46% | 1016.3 hPa | - | - | - | - |
| 1787994914 | 32.22° C | 46% | 1016.5 hPa | - | - | - | - |
| 1787994013 | 31.67° C | 50% | 1016.8 hPa | - | - | - | - |
| 1787993113 | 28.89° C | 53% | 1016.7 hPa | - | - | - | - |
| 1787992213 | 27.22° C | 56% | 1016.8 hPa | - | - | - | - |
| 1787991313 | 26.67° C | 56% | 1016.8 hPa | - | - | - | - |
| 1787990413 | 25° C | 59% | 1016.8 hPa | - | - | - | - |
| 1787989513 | 22.78° C | 61% | 1016.7 hPa | - | - | - | - |
| 1787988613 | 23.33° C | 60% | 1016.6 hPa | - | - | - | - |
| 1787987713 | 21.67° C | 61% | 1016.2 hPa | - | - | - | - |
| 1787986813 | 21.67° C | 61% | 1016.1 hPa | - | - | - | - |
* Rain since midnight (hover to see other rain measurements)
** Current wind speed in m/s (hover to see current wind gust speed)